Time;durP1;ratioP1;P1;durP2;ratioP2;P2;SDS_P1;SDS_P2;PMS_P1;PMS_P2;Temp;Humidity;BMP_temperature;BMP_pressure;BME280_temperature;BME280_humidity;BME280_pressure;Samples;Min_cycle;Max_cycle;Signal;HPM_P1;HPM_P2
2023/06/13 03:00:49;;;;;;;92.03;87.13;;;13.00;99.90;;;;;;5709859;23;20239;-80
2023/06/13 03:03:18;;;;;;;99.20;94.10;;;12.90;99.90;;;;;;4883836;29;20583;-77
2023/06/13 03:05:47;;;;;;;106.03;100.43;;;12.90;99.90;;;;;;4885469;29;20198;-78
2023/06/13 03:08:18;;;;;;;94.83;89.73;;;12.90;99.90;;;;;;4885584;29;20211;-77
2023/06/13 03:10:45;;;;;;;90.60;85.77;;;12.90;99.90;;;;;;4888930;29;20227;-77
2023/06/13 03:13:11;;;;;;;96.30;91.10;;;12.80;99.90;;;;;;4915064;23;20242;-80
2023/06/13 03:15:37;;;;;;;96.30;91.20;;;12.70;99.90;;;;;;4919283;29;20286;-77
2023/06/13 03:18:03;;;;;;;89.90;84.97;;;12.70;99.90;;;;;;4920487;29;20225;-81
2023/06/13 03:20:30;;;;;;;92.07;87.30;;;12.70;99.90;;;;;;4912890;29;20199;-79
2023/06/13 03:22:56;;;;;;;87.70;82.87;;;12.70;99.90;;;;;;4897226;29;20223;-79
2023/06/13 03:25:22;;;;;;;87.60;82.97;;;12.60;99.90;;;;;;4898342;29;20208;-78
2023/06/13 03:27:48;;;;;;;100.67;95.53;;;12.60;99.90;;;;;;4902133;29;20735;-78
2023/06/13 03:30:15;;;;;;;103.57;98.13;;;12.60;99.90;;;;;;4904895;29;20294;-79
2023/06/13 03:32:40;;;;;;;110.90;104.83;;;12.60;99.90;;;;;;4902561;29;20299;-79
2023/06/13 03:35:06;;;;;;;113.73;107.80;;;12.60;99.90;;;;;;4903173;29;20719;-78
2023/06/13 03:37:33;;;;;;;102.83;97.37;;;12.60;99.90;;;;;;4902854;29;20187;-79
2023/06/13 03:39:59;;;;;;;100.33;95.27;;;12.60;99.90;;;;;;4903540;29;20200;-79
2023/06/13 03:42:24;;;;;;;90.30;85.53;;;12.70;99.90;;;;;;4901809;29;20283;-79
2023/06/13 03:44:50;;;;;;;105.10;99.40;;;12.80;99.90;;;;;;4902511;29;20219;-79
2023/06/13 03:47:16;;;;;;;101.23;95.73;;;12.80;99.90;;;;;;4902669;29;20194;-81
2023/06/13 03:49:43;;;;;;;96.27;91.17;;;12.80;99.90;;;;;;4902740;29;20288;-79
2023/06/13 03:52:10;;;;;;;92.73;87.57;;;12.80;99.90;;;;;;4906553;29;20192;-79
2023/06/13 03:54:36;;;;;;;35.73;33.77;;;12.90;99.90;;;;;;4906865;29;20258;-81
2023/06/13 03:57:02;;;;;;;17.17;15.80;;;12.90;99.90;;;;;;4904946;29;20191;-79
2023/06/13 03:59:28;;;;;;;16.53;15.63;;;12.90;99.90;;;;;;4898115;29;20207;-79
2023/06/13 04:01:53;;;;;;;13.40;12.50;;;13.00;99.90;;;;;;4902355;29;20211;-79
2023/06/13 04:04:19;;;;;;;16.63;15.07;;;13.10;99.90;;;;;;4896797;29;20250;-79
2023/06/13 04:06:47;;;;;;;12.80;12.00;;;13.10;99.90;;;;;;4907469;29;20197;-80
2023/06/13 04:09:14;;;;;;;12.67;11.60;;;13.10;99.90;;;;;;4896943;29;20220;-79
2023/06/13 04:11:40;;;;;;;15.63;14.53;;;13.10;99.90;;;;;;4883803;29;20202;-79
2023/06/13 04:14:06;;;;;;;18.50;17.03;;;13.20;99.90;;;;;;4885866;29;20327;-79
2023/06/13 04:16:31;;;;;;;41.17;38.77;;;13.10;99.90;;;;;;4902359;29;20195;-79
2023/06/13 04:19:01;;;;;;;40.60;38.37;;;13.10;99.90;;;;;;4902309;29;20239;-79
2023/06/13 04:21:27;;;;;;;25.70;24.17;;;13.20;99.90;;;;;;4902524;29;20192;-79
2023/06/13 04:23:54;;;;;;;18.20;17.07;;;13.30;99.90;;;;;;4886188;29;20219;-79
2023/06/13 04:26:20;;;;;;;21.83;20.30;;;13.30;99.90;;;;;;4895856;29;20281;-79
2023/06/13 04:28:47;;;;;;;20.60;19.33;;;13.30;99.90;;;;;;4890617;29;20196;-79
2023/06/13 04:31:14;;;;;;;21.97;20.77;;;13.30;99.90;;;;;;4910986;29;20198;-79
2023/06/13 04:33:41;;;;;;;48.27;45.57;;;13.40;99.90;;;;;;4905882;29;20215;-79
2023/06/13 04:36:08;;;;;;;52.30;48.73;;;13.40;99.90;;;;;;4885252;29;20611;-78
2023/06/13 04:38:39;;;;;;;67.57;63.97;;;13.60;99.90;;;;;;4898364;29;20683;-78
2023/06/13 04:41:10;;;;;;;69.57;65.97;;;13.70;99.90;;;;;;4886213;29;20731;-78
2023/06/13 04:43:41;;;;;;;24.83;23.23;;;13.80;99.90;;;;;;4902673;29;20796;-80
2023/06/13 04:46:07;;;;;;;7.97;7.30;;;14.00;99.90;;;;;;4882439;29;20571;-78
2023/06/13 04:48:35;;;;;;;22.20;20.93;;;14.20;99.90;;;;;;4898895;29;20239;-78
2023/06/13 04:51:02;;;;;;;35.83;33.90;;;14.30;99.90;;;;;;4899689;29;20223;-79
2023/06/13 04:53:29;;;;;;;9.13;7.60;;;14.50;99.90;;;;;;4900662;29;20299;-81
2023/06/13 04:55:58;;;;;;;6.07;5.43;;;14.80;99.90;;;;;;4879920;29;20256;-79
2023/06/13 04:58:24;;;;;;;12.37;11.47;;;15.10;99.90;;;;;;4894815;29;20251;-79
2023/06/13 05:00:53;;;;;;;11.93;11.03;;;15.60;99.90;;;;;;4902336;29;20192;-79
2023/06/13 05:03:19;;;;;;;5.57;5.07;;;16.00;99.90;;;;;;4902879;29;20235;-79
2023/06/13 05:05:47;;;;;;;8.17;7.67;;;16.70;99.90;;;;;;4885252;29;20229;-79
2023/06/13 05:08:19;;;;;;;38.60;36.33;;;17.50;99.90;;;;;;4884814;29;20188;-78
2023/06/13 05:10:45;;;;;;;14.43;13.25;;;18.10;99.90;;;;;;4901384;29;20699;-79
2023/06/13 05:13:11;;;;;;;8.93;8.27;;;18.60;99.90;;;;;;4886137;29;20610;-79
2023/06/13 05:15:38;;;;;;;8.35;6.35;;;18.80;99.40;;;;;;4886642;29;20192;-79
2023/06/13 05:18:07;;;;;;;6.50;5.72;;;19.10;98.00;;;;;;4887160;29;20202;-79
2023/06/13 05:20:33;;;;;;;6.05;5.55;;;19.50;96.60;;;;;;4902120;29;20201;-79
2023/06/13 05:23:01;;;;;;;5.30;5.00;;;19.80;95.50;;;;;;4902445;29;20286;-79
2023/06/13 05:25:28;;;;;;;7.07;6.38;;;20.20;93.60;;;;;;4901911;29;20219;-80
2023/06/13 05:27:55;;;;;;;5.53;5.13;;;20.50;92.80;;;;;;4901924;29;20193;-80
2023/06/13 05:30:21;;;;;;;6.45;5.85;;;20.80;91.00;;;;;;4902780;29;20211;-80
2023/06/13 05:32:47;;;;;;;6.22;5.10;;;20.50;90.00;;;;;;4902912;29;20207;-81
2023/06/13 05:35:12;;;;;;;6.10;5.60;;;20.10;90.10;;;;;;4901952;29;20202;-80
2023/06/13 05:37:38;;;;;;;5.63;5.22;;;19.90;89.80;;;;;;4882281;29;20769;-79
2023/06/13 05:40:10;;;;;;;5.50;5.10;;;19.60;90.20;;;;;;4885291;29;20195;-79
2023/06/13 05:42:37;;;;;;;5.32;5.03;;;19.90;89.50;;;;;;4901343;29;20207;-79
2023/06/13 05:45:04;;;;;;;5.65;5.25;;;19.70;87.80;;;;;;4884603;29;20207;-79
2023/06/13 05:47:30;;;;;;;9.10;5.30;;;19.80;88.70;;;;;;4900735;29;20199;-79
2023/06/13 05:49:56;;;;;;;7.28;5.25;;;19.90;86.70;;;;;;4901768;29;20420;-80
2023/06/13 05:52:22;;;;;;;5.88;5.47;;;19.90;87.10;;;;;;4903577;29;20192;-80
2023/06/13 05:54:47;;;;;;;7.85;4.70;;;20.40;85.10;;;;;;4909424;29;20267;-80
2023/06/13 05:57:14;;;;;;;17.80;16.77;;;20.90;83.90;;;;;;4891895;29;20560;-80
2023/06/13 05:59:41;;;;;;;20.92;19.67;;;21.10;80.80;;;;;;4885932;29;20196;-80
2023/06/13 06:02:09;;;;;;;8.50;8.00;;;20.60;81.20;;;;;;4874323;29;20217;-81
2023/06/13 06:04:35;;;;;;;15.73;14.73;;;20.30;82.60;;;;;;4865457;29;20241;-80
2023/06/13 06:07:01;;;;;;;17.55;16.23;;;20.40;80.40;;;;;;4863683;29;20224;-80
2023/06/13 06:09:28;;;;;;;14.00;13.02;;;20.30;80.20;;;;;;4865781;29;20812;-79
2023/06/13 06:11:55;;;;;;;14.95;14.07;;;20.10;80.30;;;;;;4870736;29;20204;-80
2023/06/13 06:14:21;;;;;;;23.08;21.92;;;20.10;80.20;;;;;;4869424;29;20681;-79
2023/06/13 06:16:47;;;;;;;20.40;19.27;;;20.60;79.50;;;;;;4866493;29;20196;-78
2023/06/13 06:19:13;;;;;;;22.85;21.65;;;20.70;76.10;;;;;;4865082;29;20196;-79
2023/06/13 06:21:39;;;;;;;10.02;9.23;;;20.70;76.40;;;;;;4865395;29;20209;-80
2023/06/13 06:24:06;;;;;;;7.25;6.70;;;20.90;74.40;;;;;;4869488;29;20217;-80
2023/06/13 06:26:33;;;;;;;7.15;6.72;;;21.00;73.30;;;;;;4869069;29;20196;-80
2023/06/13 06:28:58;;;;;;;8.07;7.45;;;21.10;72.70;;;;;;4865147;29;20192;-79
2023/06/13 06:31:24;;;;;;;10.30;9.55;;;20.80;73.90;;;;;;4865575;29;20582;-80
2023/06/13 06:33:50;;;;;;;7.47;6.90;;;20.70;73.60;;;;;;4864572;29;20632;-80
2023/06/13 06:36:16;;;;;;;7.53;6.90;;;21.10;72.70;;;;;;4858987;29;20193;-77
2023/06/13 06:38:42;;;;;;;7.22;6.82;;;21.40;71.00;;;;;;4875175;29;20280;-78
2023/06/13 06:41:08;;;;;;;8.18;7.38;;;21.40;70.40;;;;;;4863452;29;20249;-80
2023/06/13 06:43:34;;;;;;;6.55;6.05;;;21.30;70.00;;;;;;4862721;29;20209;-80
2023/06/13 06:46:00;;;;;;;6.65;5.70;;;21.40;69.50;;;;;;4862027;29;20197;-80
2023/06/13 06:48:26;;;;;;;5.30;5.00;;;21.40;68.50;;;;;;4861521;29;20233;-78
2023/06/13 06:50:52;;;;;;;6.43;6.00;;;21.70;67.70;;;;;;4862353;29;20220;-78
2023/06/13 06:53:18;;;;;;;6.22;5.72;;;21.90;67.20;;;;;;4864673;29;20213;-77
2023/06/13 06:55:44;;;;;;;6.68;6.10;;;21.80;67.10;;;;;;4865741;29;20189;-78
2023/06/13 06:58:09;;;;;;;9.05;5.35;;;22.10;66.80;;;;;;4861073;29;20189;-79
2023/06/13 07:00:35;;;;;;;5.70;5.30;;;22.00;65.80;;;;;;4860777;29;20204;-78
2023/06/13 07:03:01;;;;;;;5.75;4.72;;;22.20;65.60;;;;;;4883512;29;20211;-78
2023/06/13 07:05:27;;;;;;;5.40;5.10;;;22.30;64.00;;;;;;4886668;29;20207;-78
2023/06/13 07:07:52;;;;;;;5.68;4.63;;;22.50;65.10;;;;;;4885225;29;20195;-80
2023/06/13 07:10:18;;;;;;;5.82;5.18;;;22.30;65.00;;;;;;4882066;29;20220;-79
2023/06/13 07:12:44;;;;;;;5.22;4.82;;;22.50;64.50;;;;;;4883661;29;20184;-79
2023/06/13 07:15:10;;;;;;;6.55;4.53;;;22.30;63.60;;;;;;4884027;29;20216;-81
2023/06/13 07:17:35;;;;;;;5.30;4.95;;;22.30;64.40;;;;;;4884733;29;20192;-80
2023/06/13 07:20:05;;;;;;;4.88;4.50;;;22.50;63.80;;;;;;4885009;29;20207;-80
2023/06/13 07:22:31;;;;;;;5.43;4.53;;;22.20;63.80;;;;;;4882314;29;20220;-80
2023/06/13 07:24:56;;;;;;;6.30;5.07;;;22.50;64.20;;;;;;4883789;29;20245;-79
2023/06/13 07:27:22;;;;;;;5.13;4.82;;;22.30;63.70;;;;;;4882995;29;20196;-80
2023/06/13 07:29:48;;;;;;;5.00;4.60;;;22.40;64.00;;;;;;4882475;29;20255;-80
2023/06/13 07:32:14;;;;;;;5.60;4.80;;;22.40;63.30;;;;;;4885234;29;20184;-80
2023/06/13 07:34:40;;;;;;;7.13;4.50;;;22.30;63.20;;;;;;4889039;29;20241;-79
2023/06/13 07:37:06;;;;;;;8.13;4.30;;;22.00;63.80;;;;;;4891222;29;20188;-80
2023/06/13 07:39:32;;;;;;;5.07;4.50;;;22.10;64.30;;;;;;4891001;29;20559;-79
2023/06/13 07:41:57;;;;;;;5.88;5.30;;;22.50;64.80;;;;;;4887190;29;20192;-79
2023/06/13 07:44:23;;;;;;;5.57;4.20;;;23.30;62.80;;;;;;4885541;29;20224;-81
2023/06/13 07:46:49;;;;;;;5.18;4.75;;;23.20;59.70;;;;;;4881277;29;20203;-78
2023/06/13 07:49:15;;;;;;;8.40;4.50;;;22.90;60.50;;;;;;4880826;29;20216;-78
2023/06/13 07:51:41;;;;;;;4.30;4.00;;;23.00;61.00;;;;;;4886579;29;20566;-78
2023/06/13 07:54:07;;;;;;;6.53;5.15;;;23.00;60.70;;;;;;4886382;29;20216;-78
2023/06/13 07:56:33;;;;;;;5.60;5.18;;;23.20;60.50;;;;;;4886753;29;20192;-79
2023/06/13 07:58:58;;;;;;;9.73;6.47;;;23.70;60.00;;;;;;4883915;29;20677;-79
2023/06/13 08:01:24;;;;;;;6.80;6.40;;;23.60;58.20;;;;;;4884971;29;20201;-79
2023/06/13 08:03:50;;;;;;;7.43;6.55;;;23.20;59.00;;;;;;4891982;29;20208;-79
2023/06/13 08:06:16;;;;;;;7.00;6.30;;;23.10;59.20;;;;;;4897323;29;20192;-79
2023/06/13 08:08:42;;;;;;;7.38;6.82;;;23.10;59.90;;;;;;4891461;29;20196;-79
2023/06/13 08:11:08;;;;;;;8.40;7.60;;;23.20;59.10;;;;;;4883828;29;20248;-78
2023/06/13 08:13:33;;;;;;;8.23;7.00;;;23.70;57.70;;;;;;4877093;29;20211;-79
2023/06/13 08:16:01;;;;;;;7.45;6.70;;;23.90;57.40;;;;;;4880212;29;20205;-79
2023/06/13 08:18:27;;;;;;;7.57;7.13;;;23.80;57.40;;;;;;4880149;29;20196;-79
2023/06/13 08:20:53;;;;;;;8.07;7.57;;;23.80;57.70;;;;;;4883891;29;20198;-79
2023/06/13 08:23:19;;;;;;;8.02;7.63;;;23.70;57.70;;;;;;4889218;29;20288;-80
2023/06/13 08:25:44;;;;;;;8.05;7.55;;;23.90;59.40;;;;;;4887488;29;20199;-81
2023/06/13 08:28:11;;;;;;;8.43;7.93;;;23.60;58.80;;;;;;4882728;29;20204;-77
2023/06/13 08:30:37;;;;;;;7.18;6.78;;;23.30;59.30;;;;;;4881893;29;20220;-79
2023/06/13 08:33:03;;;;;;;8.23;7.53;;;23.30;59.50;;;;;;4883666;29;20196;-79
2023/06/13 08:35:29;;;;;;;9.70;9.18;;;23.60;59.60;;;;;;4883166;29;20203;-79
2023/06/13 08:37:55;;;;;;;8.25;7.75;;;23.30;58.40;;;;;;4875805;29;20196;-78
2023/06/13 08:40:21;;;;;;;9.25;8.02;;;23.60;57.20;;;;;;4882511;29;20616;-79
2023/06/13 08:42:47;;;;;;;7.90;7.18;;;23.90;56.50;;;;;;4882945;29;20235;-80
2023/06/13 08:45:13;;;;;;;7.88;7.15;;;23.70;55.70;;;;;;4883422;29;20198;-80
2023/06/13 08:47:46;;;;;;;7.10;6.50;;;23.80;55.60;;;;;;4882697;29;20225;-80
2023/06/13 08:50:13;;;;;;;12.82;6.55;;;23.80;54.50;;;;;;4881744;29;20219;-79
2023/06/13 08:52:41;;;;;;;8.50;7.90;;;23.90;55.10;;;;;;4881762;29;20639;-80
2023/06/13 08:55:15;;;;;;;7.15;6.50;;;23.80;55.20;;;;;;4881388;29;20305;-80
2023/06/13 08:57:45;;;;;;;6.55;5.95;;;24.00;55.90;;;;;;4882378;29;20419;-80
2023/06/13 09:00:13;;;;;;;7.65;6.22;;;24.40;54.50;;;;;;4881952;29;20200;-80
2023/06/13 09:02:43;;;;;;;7.72;7.03;;;24.80;53.90;;;;;;4874792;29;20208;-79
2023/06/13 09:05:15;;;;;;;9.65;8.93;;;25.30;53.40;;;;;;4886981;29;20348;-79
2023/06/13 09:07:42;;;;;;;10.15;9.40;;;25.70;52.80;;;;;;4883348;29;20691;-78
2023/06/13 09:10:11;;;;;;;8.52;7.75;;;25.20;51.70;;;;;;4882319;29;20228;-80
2023/06/13 09:12:40;;;;;;;8.00;7.13;;;24.70;52.80;;;;;;4883656;29;20251;-78
2023/06/13 09:15:07;;;;;;;9.80;8.77;;;24.60;53.00;;;;;;4898476;23;20240;-80
2023/06/13 09:17:33;;;;;;;9.25;8.45;;;25.00;52.10;;;;;;4879204;29;20196;-79
2023/06/13 09:20:00;;;;;;;5.57;5.28;;;24.50;52.40;;;;;;4881207;29;20191;-79
2023/06/13 09:22:27;;;;;;;8.77;8.05;;;24.60;52.00;;;;;;4896128;29;20192;-82
2023/06/13 09:24:53;;;;;;;7.43;6.93;;;24.40;51.70;;;;;;4892195;29;20204;-79
2023/06/13 09:27:21;;;;;;;7.85;6.43;;;24.30;52.30;;;;;;4914049;29;20199;-82
2023/06/13 09:29:49;;;;;;;7.45;6.93;;;24.20;52.80;;;;;;4914186;29;20267;-82
2023/06/13 09:32:15;;;;;;;8.02;7.53;;;24.70;52.30;;;;;;4898844;29;20199;-79
2023/06/13 09:34:41;;;;;;;7.63;7.22;;;24.90;52.80;;;;;;4890435;29;20692;-79
2023/06/13 09:37:08;;;;;;;8.43;7.85;;;25.20;50.90;;;;;;4898922;29;20275;-80
2023/06/13 09:39:45;;;;;;;8.65;8.05;;;25.60;50.70;;;;;;4912884;29;20339;-80
2023/06/13 09:42:10;;;;;;;6.82;5.88;;;26.50;49.40;;;;;;4899757;29;20214;-79
2023/06/13 09:44:36;;;;;;;8.57;5.18;;;26.70;48.70;;;;;;4899452;29;20211;-78
2023/06/13 09:47:02;;;;;;;6.50;5.72;;;26.20;49.10;;;;;;4900237;29;20210;-82
2023/06/13 09:49:32;;;;;;;6.55;6.05;;;26.10;49.30;;;;;;4898341;29;20223;-79
2023/06/13 09:52:00;;;;;;;11.73;5.75;;;25.70;49.20;;;;;;4914342;29;20666;-79
2023/06/13 09:54:29;;;;;;;5.93;5.25;;;25.60;49.20;;;;;;4900323;29;20212;-79
2023/06/13 09:56:56;;;;;;;6.40;6.10;;;26.00;49.90;;;;;;4899103;29;20238;-79
2023/06/13 09:59:22;;;;;;;5.65;5.05;;;26.20;48.80;;;;;;4917132;29;20199;-80
2023/06/13 10:01:48;;;;;;;8.38;7.60;;;26.60;49.50;;;;;;4915353;29;20219;-80
2023/06/13 10:04:18;;;;;;;6.13;5.63;;;26.80;48.10;;;;;;4897504;29;20212;-80
2023/06/13 10:06:44;;;;;;;7.32;6.53;;;25.90;48.80;;;;;;4895717;29;20198;-80
2023/06/13 10:09:12;;;;;;;6.47;6.07;;;26.00;50.30;;;;;;4896360;29;20653;-80
2023/06/13 10:11:42;;;;;;;9.55;7.68;;;26.40;48.60;;;;;;4902831;29;20226;-80
2023/06/13 10:14:11;;;;;;;8.52;7.72;;;26.20;49.20;;;;;;4903181;29;20231;-80
2023/06/13 10:16:53;;;;;;;8.73;7.93;;;26.20;47.90;;;;;;4920039;29;20183;-79
2023/06/13 10:19:20;;;;;;;11.05;10.00;;;25.80;47.30;;;;;;4916724;29;20206;-80
2023/06/13 10:21:48;;;;;;;15.57;14.68;;;26.40;46.60;;;;;;4913664;29;20203;-81
2023/06/13 10:24:16;;;;;;;18.15;17.25;;;27.00;45.90;;;;;;4912970;29;20317;-80
2023/06/13 10:26:43;;;;;;;26.60;24.95;;;27.80;45.50;;;;;;4912802;29;20668;-80
2023/06/13 10:29:39;;;;;;;26.15;24.63;;;27.40;44.80;;;;;;4907303;29;20199;-81
2023/06/13 10:32:17;;;;;;;17.95;16.80;;;26.70;47.10;;;;;;4887349;29;20245;-80
2023/06/13 10:35:23;;;;;;;21.65;20.33;;;26.50;46.60;;;;;;4895448;29;20310;-80
2023/06/13 10:38:07;;;;;;;22.17;21.08;;;26.80;45.10;;;;;;4909739;29;20223;-80
2023/06/13 10:41:00;;;;;;;27.85;26.20;;;27.10;44.20;;;;;;4893205;29;20195;-80
2023/06/13 10:43:42;;;;;;;22.35;21.02;;;26.90;43.70;;;;;;4896414;29;20220;-80
2023/06/13 10:46:08;;;;;;;17.90;16.92;;;26.90;44.90;;;;;;4896619;29;20251;-80
2023/06/13 10:48:35;;;;;;;19.58;18.48;;;27.00;46.70;;;;;;4897278;29;20199;-80
2023/06/13 10:51:01;;;;;;;22.13;21.02;;;27.30;46.80;;;;;;4912171;29;20579;-81
2023/06/13 10:53:27;;;;;;;19.23;18.02;;;27.30;45.30;;;;;;4896757;29;20258;-80
2023/06/13 10:56:01;;;;;;;19.67;18.60;;;27.10;45.70;;;;;;4899250;29;20304;-80
2023/06/13 10:58:28;;;;;;;21.75;20.63;;;27.10;45.30;;;;;;4913553;29;20195;-81
2023/06/13 11:00:54;;;;;;;19.90;18.55;;;26.90;45.40;;;;;;4913956;29;20195;-81
2023/06/13 11:03:20;;;;;;;18.23;17.17;;;26.80;46.60;;;;;;4913328;29;20196;-81
2023/06/13 11:05:45;;;;;;;29.23;27.60;;;27.60;46.10;;;;;;4913715;29;20248;-80
2023/06/13 11:08:15;;;;;;;32.15;30.50;;;28.00;45.20;;;;;;4900850;29;20195;-80
2023/06/13 11:10:43;;;;;;;31.08;29.33;;;28.00;44.20;;;;;;4914246;29;20696;-81
2023/06/13 11:13:16;;;;;;;33.88;31.98;;;27.70;45.30;;;;;;4917590;29;20187;-80
2023/06/13 11:15:43;;;;;;;32.97;30.88;;;28.10;45.60;;;;;;4901824;29;20195;-80
2023/06/13 11:18:08;;;;;;;20.60;19.58;;;28.40;43.70;;;;;;4899932;29;20236;-80
2023/06/13 11:20:46;;;;;;;19.20;17.75;;;29.40;42.90;;;;;;4899489;29;20731;-81
2023/06/13 11:23:32;;;;;;;19.52;17.92;;;29.20;43.40;;;;;;4900396;29;20196;-79
2023/06/13 11:25:58;;;;;;;19.10;17.73;;;28.20;43.80;;;;;;4906789;29;20211;-79
2023/06/13 11:28:24;;;;;;;16.30;15.35;;;28.40;44.40;;;;;;4918604;29;20214;-80
2023/06/13 11:30:52;;;;;;;15.57;14.68;;;28.70;43.60;;;;;;4900289;29;20222;-80
2023/06/13 11:33:18;;;;;;;15.57;14.35;;;28.30;43.40;;;;;;4915968;29;20187;-80
2023/06/13 11:35:58;;;;;;;13.00;11.90;;;28.30;42.70;;;;;;4916241;29;20250;-81
2023/06/13 11:38:47;;;;;;;15.93;14.77;;;28.30;41.90;;;;;;4915444;29;20200;-81
2023/06/13 11:41:13;;;;;;;16.00;15.00;;;28.80;44.00;;;;;;4901136;29;20195;-80
2023/06/13 11:43:39;;;;;;;15.88;15.07;;;28.80;42.40;;;;;;4915670;29;20222;-81
2023/06/13 11:46:05;;;;;;;14.20;13.23;;;28.70;42.90;;;;;;4901035;29;20206;-81
2023/06/13 11:48:31;;;;;;;9.38;8.77;;;29.30;42.10;;;;;;4900472;29;20669;-80
2023/06/13 11:51:14;;;;;;;11.88;11.18;;;30.30;41.30;;;;;;4901487;29;20227;-80
2023/06/13 11:54:01;;;;;;;19.10;18.10;;;30.40;40.80;;;;;;4918387;29;20485;-80
2023/06/13 11:56:28;;;;;;;11.68;10.80;;;30.30;40.60;;;;;;4930139;29;20179;-80
2023/06/13 11:58:55;;;;;;;11.68;10.57;;;29.40;41.40;;;;;;4937844;29;20207;-81
2023/06/13 12:01:25;;;;;;;11.85;11.07;;;29.30;42.30;;;;;;4931131;29;20199;-80
2023/06/13 12:03:52;;;;;;;10.35;9.55;;;29.10;40.70;;;;;;4912103;29;20232;-81
2023/06/13 12:06:19;;;;;;;12.07;11.20;;;29.00;41.30;;;;;;4918120;29;20200;-81
2023/06/13 12:08:45;;;;;;;12.65;11.65;;;29.60;40.70;;;;;;4899859;29;20203;-81
2023/06/13 12:11:16;;;;;;;18.27;17.35;;;30.30;40.10;;;;;;4915042;29;20228;-81
2023/06/13 12:13:55;;;;;;;19.52;18.52;;;30.70;40.00;;;;;;4914724;29;20668;-81
2023/06/13 12:16:23;;;;;;;18.92;17.85;;;30.20;39.10;;;;;;4915372;29;20202;-81
2023/06/13 12:18:53;;;;;;;16.85;15.85;;;30.80;39.30;;;;;;4916053;29;20198;-81
2023/06/13 12:21:27;;;;;;;18.50;17.27;;;30.60;38.90;;;;;;4901178;29;20203;-81
2023/06/13 12:23:55;;;;;;;21.00;19.60;;;30.20;40.00;;;;;;4914831;29;20216;-81
2023/06/13 12:26:21;;;;;;;21.50;19.98;;;30.10;40.80;;;;;;4899402;29;20195;-81
2023/06/13 12:28:47;;;;;;;14.82;13.93;;;30.50;39.60;;;;;;4914804;29;20207;-79
2023/06/13 12:31:14;;;;;;;8.30;7.78;;;31.60;38.50;;;;;;4899083;29;20208;-79
2023/06/13 12:33:41;;;;;;;7.97;7.47;;;32.30;37.90;;;;;;4900846;29;20226;-82
2023/06/13 12:36:09;;;;;;;10.80;9.10;;;31.70;37.50;;;;;;4917579;29;20251;-82
2023/06/13 12:38:35;;;;;;;11.43;10.50;;;31.00;38.10;;;;;;4900583;29;20202;-81
2023/06/13 12:41:12;;;;;;;9.40;8.93;;;30.60;37.80;;;;;;4914964;29;20192;-82
2023/06/13 12:43:41;;;;;;;7.82;7.32;;;30.50;38.40;;;;;;4913832;29;20684;-81
2023/06/13 12:46:06;;;;;;;12.18;11.20;;;30.50;35.20;;;;;;4897203;29;20196;-80
2023/06/13 12:48:36;;;;;;;11.35;10.75;;;29.50;37.80;;;;;;4925169;29;20251;-81
2023/06/13 12:51:02;;;;;;;11.30;10.63;;;30.20;37.40;;;;;;4918417;29;20260;-79
2023/06/13 12:53:30;;;;;;;10.73;10.13;;;30.90;37.80;;;;;;4891213;29;20220;-82
2023/06/13 12:56:01;;;;;;;9.80;9.10;;;31.00;37.80;;;;;;4906161;29;20195;-82
2023/06/13 12:58:26;;;;;;;20.85;19.65;;;30.60;37.40;;;;;;4899025;29;20196;-81
2023/06/13 13:00:53;;;;;;;17.52;16.35;;;30.00;38.80;;;;;;4890617;29;20252;-82
2023/06/13 13:03:20;;;;;;;23.38;22.02;;;30.30;38.60;;;;;;4899011;29;20219;-81
2023/06/13 13:05:46;;;;;;;22.00;20.77;;;29.90;39.40;;;;;;4905883;29;20215;-79
2023/06/13 13:08:12;;;;;;;14.55;13.73;;;30.20;38.90;;;;;;4913197;29;20195;-81
2023/06/13 13:10:38;;;;;;;9.52;8.93;;;31.10;38.00;;;;;;4897993;29;20250;-79
2023/06/13 13:13:04;;;;;;;11.20;10.30;;;31.60;36.60;;;;;;4899012;29;20204;-79
2023/06/13 13:15:30;;;;;;;8.32;7.93;;;31.60;37.80;;;;;;4898896;29;20569;-80
2023/06/13 13:17:56;;;;;;;5.63;5.00;;;32.90;37.70;;;;;;4914929;29;20196;-79
2023/06/13 13:20:22;;;;;;;5.88;3.92;;;34.00;36.50;;;;;;4899128;29;20215;-80
2023/06/13 13:22:48;;;;;;;6.90;5.10;;;34.40;35.60;;;;;;4907251;29;20231;-79
2023/06/13 13:25:13;;;;;;;4.68;4.45;;;34.20;35.00;;;;;;4914000;29;20247;-80
2023/06/13 13:27:39;;;;;;;5.57;5.18;;;33.90;34.20;;;;;;4898105;29;20206;-79
2023/06/13 13:30:07;;;;;;;5.70;5.22;;;33.40;32.80;;;;;;4899356;29;20311;-79
2023/06/13 13:32:32;;;;;;;7.95;4.75;;;33.60;33.80;;;;;;4913324;29;20188;-80
2023/06/13 13:35:00;;;;;;;5.47;4.97;;;33.50;34.30;;;;;;4912673;29;20208;-79
2023/06/13 13:37:26;;;;;;;7.38;4.55;;;33.20;34.30;;;;;;4898210;29;20647;-80
2023/06/13 13:39:52;;;;;;;5.38;4.88;;;32.40;35.10;;;;;;4897332;29;20299;-80
2023/06/13 13:42:17;;;;;;;8.90;4.68;;;32.40;34.20;;;;;;4912755;29;20195;-80
2023/06/13 13:44:44;;;;;;;6.90;5.00;;;32.80;34.50;;;;;;4931337;29;20231;-79
2023/06/13 13:47:09;;;;;;;4.82;4.43;;;33.30;34.50;;;;;;4921741;29;20196;-79
2023/06/13 13:49:36;;;;;;;4.90;4.50;;;33.60;34.40;;;;;;4889473;29;20242;-78
2023/06/13 13:52:02;;;;;;;6.13;4.70;;;33.30;35.20;;;;;;4912281;29;20195;-79
2023/06/13 13:54:28;;;;;;;9.00;5.68;;;34.00;33.50;;;;;;4898349;29;20212;-80
2023/06/13 13:56:53;;;;;;;5.25;4.85;;;33.50;33.40;;;;;;4912663;29;20191;-79
2023/06/13 13:59:19;;;;;;;10.02;5.53;;;32.50;34.60;;;;;;4898024;29;20674;-79
2023/06/13 14:01:45;;;;;;;4.53;4.22;;;32.00;35.60;;;;;;4905981;29;20437;-79
2023/06/13 14:04:13;;;;;;;8.10;4.38;;;33.30;35.00;;;;;;4913580;29;20207;-78
2023/06/13 14:06:39;;;;;;;5.90;5.30;;;33.30;35.40;;;;;;4913178;29;20224;-80
2023/06/13 14:09:09;;;;;;;5.43;4.72;;;34.00;34.50;;;;;;4894714;29;20200;-80
2023/06/13 14:11:35;;;;;;;6.25;5.65;;;34.40;34.00;;;;;;4896145;29;20192;-79
2023/06/13 14:14:01;;;;;;;7.00;5.85;;;34.40;33.40;;;;;;4914130;29;20223;-78
2023/06/13 14:16:28;;;;;;;6.63;5.50;;;33.70;33.40;;;;;;4898445;29;20260;-79
2023/06/13 14:18:53;;;;;;;6.38;5.60;;;32.70;34.10;;;;;;4904564;29;20294;-82
2023/06/13 14:21:19;;;;;;;4.68;4.43;;;33.20;33.70;;;;;;4912711;29;20231;-81
2023/06/13 14:23:45;;;;;;;5.72;5.43;;;33.10;31.60;;;;;;4898179;29;20222;-81
2023/06/13 14:26:11;;;;;;;6.35;4.60;;;31.80;32.70;;;;;;4912645;29;20215;-81
2023/06/13 14:28:38;;;;;;;5.43;5.03;;;31.40;33.40;;;;;;4911761;29;20188;-81
2023/06/13 14:31:04;;;;;;;5.40;4.90;;;31.60;34.60;;;;;;4905360;29;20215;-81
2023/06/13 14:33:30;;;;;;;5.55;4.60;;;32.00;34.50;;;;;;4896550;29;20203;-81
2023/06/13 14:35:56;;;;;;;5.63;5.22;;;32.70;33.60;;;;;;4897530;29;20575;-80
2023/06/13 14:38:21;;;;;;;5.50;5.10;;;33.40;32.90;;;;;;4889673;29;20195;-81
2023/06/13 14:40:47;;;;;;;7.65;6.50;;;32.90;33.10;;;;;;4910564;29;20614;-81
2023/06/13 14:43:13;;;;;;;6.07;5.47;;;32.60;33.10;;;;;;4913481;29;20282;-81
2023/06/13 14:45:39;;;;;;;5.22;4.93;;;32.90;33.30;;;;;;4913753;29;20698;-81
2023/06/13 14:48:05;;;;;;;5.55;5.18;;;32.00;31.70;;;;;;4916769;29;20195;-81
2023/06/13 14:50:30;;;;;;;5.88;4.88;;;32.00;32.70;;;;;;4916772;29;20251;-81
2023/06/13 14:52:56;;;;;;;5.68;4.90;;;31.80;32.90;;;;;;4886545;29;20207;-81
2023/06/13 14:55:22;;;;;;;5.85;5.45;;;30.90;33.80;;;;;;4916379;29;20684;-81
2023/06/13 14:57:48;;;;;;;5.68;5.22;;;31.60;32.50;;;;;;4901901;29;20218;-81
2023/06/13 15:00:15;;;;;;;7.90;5.50;;;32.50;31.90;;;;;;4901249;29;20259;-81
2023/06/13 15:02:41;;;;;;;5.60;5.10;;;32.30;30.70;;;;;;4901463;29;20196;-81
2023/06/13 15:05:07;;;;;;;5.65;5.20;;;31.50;30.80;;;;;;4902113;29;20219;-81
2023/06/13 15:07:33;;;;;;;5.72;5.30;;;31.40;31.20;;;;;;4901054;29;20282;-81
2023/06/13 15:09:59;;;;;;;5.43;5.13;;;32.10;31.70;;;;;;4917737;29;20226;-81
2023/06/13 15:12:26;;;;;;;8.60;5.85;;;32.40;31.80;;;;;;4916504;29;20199;-81
2023/06/13 15:14:52;;;;;;;5.28;4.82;;;31.70;32.00;;;;;;4911285;23;20331;-79
2023/06/13 15:17:19;;;;;;;6.65;6.00;;;32.00;32.00;;;;;;4883881;29;20787;-80
2023/06/13 15:19:45;;;;;;;9.45;5.70;;;32.70;31.20;;;;;;4898879;29;20196;-79
2023/06/13 15:22:10;;;;;;;5.75;5.22;;;32.40;31.00;;;;;;4884500;29;20244;-79
2023/06/13 15:24:36;;;;;;;6.63;5.53;;;31.50;31.60;;;;;;4883568;29;20585;-79
2023/06/13 15:27:02;;;;;;;5.38;4.78;;;31.50;32.40;;;;;;4884332;29;20634;-79
2023/06/13 15:29:28;;;;;;;5.72;5.25;;;31.50;32.50;;;;;;4888668;29;20224;-79
2023/06/13 15:31:54;;;;;;;5.35;5.05;;;31.80;32.50;;;;;;4902939;29;20192;-80
2023/06/13 15:34:20;;;;;;;6.93;6.30;;;32.50;32.10;;;;;;4887400;29;20216;-79
2023/06/13 15:36:45;;;;;;;5.63;5.22;;;32.90;31.60;;;;;;4887370;29;20184;-81
2023/06/13 15:39:12;;;;;;;8.13;7.35;;;33.20;31.70;;;;;;4901162;29;20296;-79